createdAt,value
2018-02-17T15:12:11.611Z,6.05
2018-02-17T15:14:40.759Z,5.83
2018-02-17T15:17:07.541Z,5.64
2018-02-17T15:19:34.370Z,5.47
2018-02-17T15:22:01.782Z,5.36
2018-02-17T15:24:29.496Z,5.32
2018-02-17T15:26:57.571Z,5.25
2018-02-17T15:29:25.762Z,5.20
2018-02-17T15:31:52.813Z,5.17
2018-02-17T15:34:19.503Z,5.05
2018-02-17T15:36:48.858Z,4.98
2018-02-17T15:39:18.471Z,4.95
2018-02-17T15:41:48.846Z,4.93
2018-02-17T15:44:20.267Z,4.75
2018-02-17T15:46:48.051Z,4.65
2018-02-17T15:49:16.548Z,4.58
2018-02-17T15:51:45.034Z,4.38
2018-02-17T15:54:14.094Z,4.25
2018-02-17T15:56:41.608Z,4.15
2018-02-17T15:59:08.226Z,4.03
2018-02-17T16:01:34.961Z,3.94
2018-02-17T16:04:02.164Z,3.81
2018-02-17T16:06:28.784Z,3.68
2018-02-17T16:08:57.936Z,3.74
2018-02-17T16:11:27.479Z,3.70
2018-02-17T16:16:26.478Z,3.56
2018-02-17T16:18:55.895Z,3.44
2018-02-17T16:21:25.392Z,3.35
2018-02-17T16:23:55.832Z,3.74
2018-02-17T16:26:25.312Z,3.93
2018-02-17T16:28:55.303Z,4.86
2018-02-17T16:31:27.219Z,5.28
2018-02-17T16:33:56.089Z,5.29
2018-02-17T16:36:25.120Z,5.47
2018-02-17T16:38:55.272Z,5.40
2018-02-17T16:41:24.272Z,5.71
2018-02-17T16:43:52.937Z,5.46
2018-02-17T16:46:24.078Z,5.54
2018-02-17T16:48:54.893Z,5.28
2018-02-17T16:51:24.158Z,4.86
2018-02-17T16:53:54.765Z,4.77
2018-02-17T16:56:26.454Z,4.63
2018-02-17T16:58:58.382Z,4.24
2018-02-17T17:01:30.993Z,4.10
2018-02-17T17:04:05.031Z,4.25
2018-02-17T17:06:33.891Z,3.89
2018-02-17T17:09:03.112Z,3.65
2018-02-17T17:11:34.619Z,3.59
2018-02-17T17:14:05.941Z,3.31
2018-02-17T17:16:36.088Z,3.03
2018-02-17T17:19:06.354Z,2.95
2018-02-17T17:21:35.462Z,3.09
2018-02-17T17:24:06.665Z,3.00
2018-02-17T17:26:37.231Z,2.79
2018-02-17T17:29:06.241Z,2.83
2018-02-17T17:31:36.757Z,2.64
2018-02-17T17:34:09.715Z,2.57
2018-02-17T17:36:42.359Z,2.49
2018-02-17T17:39:12.337Z,2.45
2018-02-17T17:41:42.200Z,2.34
2018-02-17T17:44:13.574Z,2.44
2018-02-17T17:46:43.070Z,2.32
2018-02-17T17:49:13.813Z,2.20
2018-02-17T17:51:43.077Z,2.15
2018-02-17T17:54:12.313Z,2.11
2018-02-17T17:56:41.101Z,2.15
2018-02-17T17:59:09.811Z,2.06
2018-02-17T18:01:37.715Z,1.99
2018-02-17T18:04:07.230Z,1.98
2018-02-17T18:06:35.618Z,1.95
2018-02-17T18:09:03.842Z,1.92
2018-02-17T18:11:31.933Z,2.02
2018-02-17T18:14:02.453Z,2.01
2018-02-17T18:16:30.361Z,1.87
2018-02-17T18:18:59.636Z,1.91
2018-02-17T18:21:28.673Z,2.17
2018-02-17T18:23:59.087Z,2.06
2018-02-17T18:26:28.090Z,2.19
2018-02-17T18:28:56.340Z,2.16
2018-02-17T18:31:24.526Z,2.17
2018-02-17T18:33:52.731Z,2.77
2018-02-17T18:36:22.350Z,3.06
2018-02-17T18:38:50.520Z,3.14
2018-02-17T18:41:19.752Z,3.23
2018-02-17T18:43:47.875Z,3.75
2018-02-17T18:46:19.057Z,3.39
2018-02-17T18:48:46.862Z,3.59
2018-02-17T18:51:13.888Z,3.19
2018-02-17T18:53:41.749Z,3.84
2018-02-17T18:56:09.377Z,4.52
2018-02-17T18:58:37.298Z,4.34
2018-02-17T19:01:04.977Z,4.40
2018-02-17T19:03:31.880Z,4.43
2018-02-17T19:05:59.283Z,4.40
2018-02-17T19:08:29.076Z,4.62
2018-02-17T19:10:57.109Z,4.65
2018-02-17T19:13:24.531Z,4.89
2018-02-17T19:15:52.485Z,4.55
2018-02-17T19:18:21.046Z,4.54
2018-02-17T19:20:49.555Z,4.57
2018-02-17T19:23:19.340Z,4.14
2018-02-17T19:25:48.282Z,3.56
2018-02-17T19:28:17.189Z,3.89
2018-02-17T19:30:46.714Z,3.66
2018-02-17T19:33:16.189Z,3.74
2018-02-17T19:35:51.698Z,3.91
2018-02-17T19:38:21.377Z,3.21
2018-02-17T19:40:50.684Z,2.81
2018-02-17T19:43:20.213Z,2.64
2018-02-17T19:45:49.539Z,2.59
2018-02-17T19:48:19.531Z,2.22
2018-02-17T19:50:48.359Z,2.00
2018-02-17T19:53:16.230Z,1.96
2018-02-17T19:55:46.896Z,2.55
2018-02-17T19:58:14.066Z,2.12
2018-02-17T20:00:41.687Z,2.01
2018-02-17T20:03:10.182Z,2.03
2018-02-17T20:05:37.458Z,1.79
2018-02-17T20:08:04.033Z,1.94
2018-02-17T20:10:31.416Z,2.10
2018-02-17T20:12:58.205Z,2.03
2018-02-17T20:15:25.039Z,2.37
2018-02-17T20:17:52.543Z,2.19
2018-02-17T20:20:19.923Z,2.52
2018-02-17T20:22:46.501Z,2.22
2018-02-17T20:25:13.160Z,2.09
2018-02-17T20:27:39.929Z,2.33
2018-02-17T20:30:06.466Z,2.07
2018-02-17T20:32:33.175Z,2.00
2018-02-17T20:35:00.008Z,1.92
2018-02-17T20:37:26.787Z,1.80
2018-02-17T20:39:54.419Z,1.77
2018-02-17T20:42:21.260Z,1.55
2018-02-17T20:44:48.504Z,1.77
2018-02-17T20:47:15.681Z,1.72
2018-02-17T20:49:42.463Z,1.46
2018-02-17T20:52:09.428Z,1.30
2018-02-17T20:54:37.917Z,1.31
2018-02-17T20:57:05.440Z,1.05
2018-02-17T20:59:32.771Z,1.02
2018-02-17T21:02:00.000Z,0.91
2018-02-17T21:04:27.195Z,1.16
2018-02-17T21:06:54.383Z,1.09
2018-02-17T21:09:22.003Z,0.87
2018-02-17T21:11:49.427Z,1.04
2018-02-17T21:14:16.894Z,1.16
2018-02-17T21:16:44.460Z,1.09
2018-02-17T21:19:11.755Z,0.88
2018-02-17T21:21:39.118Z,0.71
2018-02-17T21:24:05.816Z,0.63
2018-02-17T21:26:32.753Z,0.52
2018-02-17T21:29:00.027Z,0.34
2018-02-17T21:31:28.472Z,0.63
2018-02-17T21:33:56.694Z,0.71
2018-02-17T21:36:24.647Z,0.52
2018-02-17T21:38:53.175Z,0.48
2018-02-17T21:41:21.410Z,0.29
2018-02-17T21:43:50.259Z,0.23
2018-02-17T21:46:18.004Z,0.30
2018-02-17T21:48:45.867Z,0.34
2018-02-17T21:51:13.536Z,0.32
2018-02-17T21:53:40.693Z,0.26
2018-02-17T21:56:07.500Z,0.12
2018-02-17T21:58:34.293Z,0.03
2018-02-17T22:01:01.017Z,-0.11
2018-02-17T22:03:27.951Z,-0.20
2018-02-17T22:05:56.627Z,-0.23
2018-02-17T22:08:23.782Z,-0.26
2018-02-17T22:10:51.934Z,-0.31
2018-02-17T22:13:18.993Z,-0.39
2018-02-17T22:15:46.006Z,-0.32
2018-02-17T22:18:13.148Z,-0.37
2018-02-17T22:20:40.083Z,-0.33
2018-02-17T22:23:06.963Z,-0.37
2018-02-17T22:25:33.734Z,-0.33
2018-02-17T22:28:01.057Z,-0.26
2018-02-17T22:30:28.486Z,-0.23
2018-02-17T22:32:55.373Z,-0.21
2018-02-17T22:35:22.459Z,-0.08
2018-02-17T22:37:49.862Z,0.26
2018-02-17T22:40:16.610Z,0.00
2018-02-17T22:42:43.437Z,-0.04
2018-02-17T22:45:10.778Z,-0.15
2018-02-17T22:47:37.759Z,-0.16
2018-02-17T22:50:04.913Z,-0.25
2018-02-17T22:52:31.820Z,-0.30
2018-02-17T22:54:58.859Z,-0.36
2018-02-17T22:57:25.788Z,-0.26
2018-02-17T22:59:53.138Z,-0.20
2018-02-17T23:02:20.065Z,-0.16
2018-02-17T23:04:47.005Z,-0.24
2018-02-17T23:07:13.775Z,-0.27
2018-02-17T23:09:41.129Z,-0.18
2018-02-17T23:12:07.893Z,-0.28
2018-02-17T23:14:34.744Z,-0.15
2018-02-17T23:17:02.114Z,-0.18
2018-02-17T23:19:29.026Z,-0.04
2018-02-17T23:21:55.854Z,-0.09
2018-02-17T23:24:22.581Z,0.09
2018-02-17T23:26:49.160Z,-0.06
2018-02-17T23:29:15.892Z,0.01
2018-02-17T23:31:42.578Z,0.38
2018-02-17T23:34:10.231Z,0.12
2018-02-17T23:36:37.315Z,0.07
2018-02-17T23:39:03.964Z,0.07
2018-02-17T23:41:30.514Z,0.02
2018-02-17T23:43:56.988Z,-0.07
2018-02-17T23:46:23.547Z,-0.12
2018-02-17T23:48:50.136Z,-0.18
2018-02-17T23:51:16.724Z,0.25
2018-02-17T23:53:43.219Z,0.09
2018-02-17T23:56:09.798Z,-0.17
2018-02-17T23:58:36.345Z,-0.20
